Terminal Aerodrome Forecast
Issued by NWS Omaha/Valley, NE

Home | Current Version | Previous Version | Graphics & Text | Print | Product List | Glossary On
Versions: 1 2 3 4 5 6 7 8 9 10 11 12 13 14 15 16 17 18 19 20 21 22 23 24 25 26 27 28 29 30 31 32 33 34 35 36 37 38 39 40 41 42 43 44 45 46 47 48 49 50
000
FTUS43 KOAX 062023 AAA
TAFOFK
TAF AMD
KOFK 062023Z 0620/0718 16018G26KT P6SM OVC012
     FM062200 16018G25KT P6SM SCT015 OVC035
      TEMPO 0622/0701 3SM TSRA OVC015CB
     FM070100 16016G25KT 5SM -SHRA BR OVC025
      TEMPO 0702/0705 3SM TSRA OVC015CB
     FM070500 17016G25KT 5SM -SHRA BR OVC030 PROB30 0706/0710 2SM
      TSRA OVC020CB
     FM071200 23010KT 4SM BR OVC007
     FM071500 28010KT P6SM OVC025=

USA.gov is the U.S. government's official web portal to all federal, state and local government web resources and services.